sensor_id;sensor_type;location;lat;lon;timestamp;temperature;humidity
4425;DHT22;2225;53.568;13.266;2024-02-26T00:02:18;7.80;93.60
4425;DHT22;2225;53.568;13.266;2024-02-26T00:04:45;7.80;93.60
4425;DHT22;2225;53.568;13.266;2024-02-26T00:07:12;7.70;93.50
4425;DHT22;2225;53.568;13.266;2024-02-26T00:09:40;7.70;93.50
4425;DHT22;2225;53.568;13.266;2024-02-26T00:12:07;7.70;93.50
4425;DHT22;2225;53.568;13.266;2024-02-26T00:14:34;7.60;93.50
4425;DHT22;2225;53.568;13.266;2024-02-26T00:17:01;7.60;93.40
4425;DHT22;2225;53.568;13.266;2024-02-26T00:19:27;7.50;93.30
4425;DHT22;2225;53.568;13.266;2024-02-26T00:21:55;7.50;93.30
4425;DHT22;2225;53.568;13.266;2024-02-26T00:24:22;7.50;93.30
4425;DHT22;2225;53.568;13.266;2024-02-26T00:26:49;7.40;93.30
4425;DHT22;2225;53.568;13.266;2024-02-26T00:29:21;7.40;93.30
4425;DHT22;2225;53.568;13.266;2024-02-26T00:31:48;7.30;93.30
4425;DHT22;2225;53.568;13.266;2024-02-26T00:34:15;7.30;93.30
4425;DHT22;2225;53.568;13.266;2024-02-26T00:36:43;7.20;93.30
4425;DHT22;2225;53.568;13.266;2024-02-26T00:39:11;7.20;93.40
4425;DHT22;2225;53.568;13.266;2024-02-26T00:41:40;7.10;93.40
4425;DHT22;2225;53.568;13.266;2024-02-26T00:44:07;7.10;93.50
4425;DHT22;2225;53.568;13.266;2024-02-26T00:46:34;7.00;93.50
4425;DHT22;2225;53.568;13.266;2024-02-26T00:49:01;7.00;93.50
4425;DHT22;2225;53.568;13.266;2024-02-26T00:51:30;6.90;93.40
4425;DHT22;2225;53.568;13.266;2024-02-26T00:53:57;6.80;93.40
4425;DHT22;2225;53.568;13.266;2024-02-26T00:56:24;6.80;93.50
4425;DHT22;2225;53.568;13.266;2024-02-26T00:58:51;6.80;93.60
4425;DHT22;2225;53.568;13.266;2024-02-26T01:01:18;6.70;93.60
4425;DHT22;2225;53.568;13.266;2024-02-26T01:03:45;6.70;93.60
4425;DHT22;2225;53.568;13.266;2024-02-26T01:06:12;6.60;93.80
4425;DHT22;2225;53.568;13.266;2024-02-26T01:08:39;6.60;93.80
4425;DHT22;2225;53.568;13.266;2024-02-26T01:11:06;6.60;93.80
4425;DHT22;2225;53.568;13.266;2024-02-26T01:13:34;6.50;93.90
4425;DHT22;2225;53.568;13.266;2024-02-26T01:16:01;6.50;93.90
4425;DHT22;2225;53.568;13.266;2024-02-26T01:18:28;6.40;93.80
4425;DHT22;2225;53.568;13.266;2024-02-26T01:20:55;6.40;93.90
4425;DHT22;2225;53.568;13.266;2024-02-26T01:23:22;6.40;93.90
4425;DHT22;2225;53.568;13.266;2024-02-26T01:25:49;6.30;94.00
4425;DHT22;2225;53.568;13.266;2024-02-26T01:28:16;6.30;94.10
4425;DHT22;2225;53.568;13.266;2024-02-26T01:30:43;6.30;94.10
4425;DHT22;2225;53.568;13.266;2024-02-26T01:33:10;6.20;94.10
4425;DHT22;2225;53.568;13.266;2024-02-26T01:35:37;6.20;94.10
4425;DHT22;2225;53.568;13.266;2024-02-26T01:38:04;6.20;94.10
4425;DHT22;2225;53.568;13.266;2024-02-26T01:40:31;6.10;94.20
4425;DHT22;2225;53.568;13.266;2024-02-26T01:42:59;6.10;94.20
4425;DHT22;2225;53.568;13.266;2024-02-26T01:45:26;6.10;94.30
4425;DHT22;2225;53.568;13.266;2024-02-26T01:47:54;6.00;94.30
4425;DHT22;2225;53.568;13.266;2024-02-26T01:50:22;6.00;94.30
4425;DHT22;2225;53.568;13.266;2024-02-26T01:52:50;6.00;94.30
4425;DHT22;2225;53.568;13.266;2024-02-26T01:55:18;5.90;94.30
4425;DHT22;2225;53.568;13.266;2024-02-26T01:57:48;5.90;94.30
4425;DHT22;2225;53.568;13.266;2024-02-26T02:00:16;5.90;94.40
4425;DHT22;2225;53.568;13.266;2024-02-26T02:02:44;5.80;94.40
4425;DHT22;2225;53.568;13.266;2024-02-26T02:05:17;5.80;94.40
4425;DHT22;2225;53.568;13.266;2024-02-26T02:07:46;5.80;94.50
4425;DHT22;2225;53.568;13.266;2024-02-26T02:10:18;5.80;94.80
4425;DHT22;2225;53.568;13.266;2024-02-26T02:12:49;5.70;94.50
4425;DHT22;2225;53.568;13.266;2024-02-26T02:15:16;5.70;94.50
4425;DHT22;2225;53.568;13.266;2024-02-26T02:17:43;5.70;94.50
4425;DHT22;2225;53.568;13.266;2024-02-26T02:20:24;5.60;94.40
4425;DHT22;2225;53.568;13.266;2024-02-26T02:22:53;5.60;94.60
4425;DHT22;2225;53.568;13.266;2024-02-26T02:25:20;5.60;94.50
4425;DHT22;2225;53.568;13.266;2024-02-26T02:27:47;5.50;94.50
4425;DHT22;2225;53.568;13.266;2024-02-26T02:30:14;5.50;94.60
4425;DHT22;2225;53.568;13.266;2024-02-26T02:32:43;5.50;94.60
4425;DHT22;2225;53.568;13.266;2024-02-26T02:35:10;5.50;94.60
4425;DHT22;2225;53.568;13.266;2024-02-26T02:37:37;5.40;94.40
4425;DHT22;2225;53.568;13.266;2024-02-26T02:40:05;5.40;94.40
4425;DHT22;2225;53.568;13.266;2024-02-26T02:42:32;5.40;94.40
4425;DHT22;2225;53.568;13.266;2024-02-26T02:44:59;5.40;94.40
4425;DHT22;2225;53.568;13.266;2024-02-26T02:47:26;5.30;94.30
4425;DHT22;2225;53.568;13.266;2024-02-26T02:49:53;5.30;94.40
4425;DHT22;2225;53.568;13.266;2024-02-26T02:52:20;5.30;94.60
4425;DHT22;2225;53.568;13.266;2024-02-26T02:54:47;5.30;94.90
4425;DHT22;2225;53.568;13.266;2024-02-26T02:57:14;5.30;94.50
4425;DHT22;2225;53.568;13.266;2024-02-26T02:59:41;5.20;94.70
4425;DHT22;2225;53.568;13.266;2024-02-26T03:02:08;5.20;94.60
4425;DHT22;2225;53.568;13.266;2024-02-26T03:04:35;5.20;94.70
4425;DHT22;2225;53.568;13.266;2024-02-26T03:07:02;5.20;94.70
4425;DHT22;2225;53.568;13.266;2024-02-26T03:09:29;5.20;94.70
4425;DHT22;2225;53.568;13.266;2024-02-26T03:11:56;5.10;94.70
4425;DHT22;2225;53.568;13.266;2024-02-26T03:14:23;5.10;94.80
4425;DHT22;2225;53.568;13.266;2024-02-26T03:16:53;5.10;94.70
4425;DHT22;2225;53.568;13.266;2024-02-26T03:19:21;5.00;94.70
4425;DHT22;2225;53.568;13.266;2024-02-26T03:21:48;5.00;94.70
4425;DHT22;2225;53.568;13.266;2024-02-26T03:24:15;5.00;94.70
4425;DHT22;2225;53.568;13.266;2024-02-26T03:26:42;4.90;94.70
4425;DHT22;2225;53.568;13.266;2024-02-26T03:29:09;4.90;94.70
4425;DHT22;2225;53.568;13.266;2024-02-26T03:31:37;4.90;94.80
4425;DHT22;2225;53.568;13.266;2024-02-26T03:34:03;4.90;94.90
4425;DHT22;2225;53.568;13.266;2024-02-26T03:36:31;4.80;94.90
4425;DHT22;2225;53.568;13.266;2024-02-26T03:38:58;4.80;95.00
4425;DHT22;2225;53.568;13.266;2024-02-26T03:41:25;4.80;95.10
4425;DHT22;2225;53.568;13.266;2024-02-26T03:43:52;4.80;95.10
4425;DHT22;2225;53.568;13.266;2024-02-26T03:46:19;4.80;95.10
4425;DHT22;2225;53.568;13.266;2024-02-26T03:48:46;4.80;95.10
4425;DHT22;2225;53.568;13.266;2024-02-26T03:51:13;4.70;95.10
4425;DHT22;2225;53.568;13.266;2024-02-26T03:53:40;4.70;95.20
4425;DHT22;2225;53.568;13.266;2024-02-26T03:56:08;4.70;95.20
4425;DHT22;2225;53.568;13.266;2024-02-26T03:58:35;4.70;95.20
4425;DHT22;2225;53.568;13.266;2024-02-26T04:01:02;4.70;95.30
4425;DHT22;2225;53.568;13.266;2024-02-26T04:03:29;4.70;95.40
4425;DHT22;2225;53.568;13.266;2024-02-26T04:05:56;4.60;95.20
4425;DHT22;2225;53.568;13.266;2024-02-26T04:08:23;4.60;95.00
4425;DHT22;2225;53.568;13.266;2024-02-26T04:10:50;4.60;95.00
4425;DHT22;2225;53.568;13.266;2024-02-26T04:13:17;4.60;95.00
4425;DHT22;2225;53.568;13.266;2024-02-26T04:15:45;4.60;95.10
4425;DHT22;2225;53.568;13.266;2024-02-26T04:18:13;4.60;95.20
4425;DHT22;2225;53.568;13.266;2024-02-26T04:20:41;4.60;95.20
4425;DHT22;2225;53.568;13.266;2024-02-26T04:23:09;4.50;95.20
4425;DHT22;2225;53.568;13.266;2024-02-26T04:25:36;4.50;95.20
4425;DHT22;2225;53.568;13.266;2024-02-26T04:28:03;4.50;95.30
4425;DHT22;2225;53.568;13.266;2024-02-26T04:30:30;4.50;95.20
4425;DHT22;2225;53.568;13.266;2024-02-26T04:32:57;4.50;95.30
4425;DHT22;2225;53.568;13.266;2024-02-26T04:35:24;4.50;95.30
4425;DHT22;2225;53.568;13.266;2024-02-26T04:37:51;4.40;95.20
4425;DHT22;2225;53.568;13.266;2024-02-26T04:40:17;4.40;95.30
4425;DHT22;2225;53.568;13.266;2024-02-26T04:42:44;4.40;95.30
4425;DHT22;2225;53.568;13.266;2024-02-26T04:45:11;4.40;95.40
4425;DHT22;2225;53.568;13.266;2024-02-26T04:47:38;4.40;95.40
4425;DHT22;2225;53.568;13.266;2024-02-26T04:50:06;4.40;95.30
4425;DHT22;2225;53.568;13.266;2024-02-26T04:52:33;4.30;95.20
4425;DHT22;2225;53.568;13.266;2024-02-26T04:55:00;4.30;95.30
4425;DHT22;2225;53.568;13.266;2024-02-26T04:57:27;4.30;95.40
4425;DHT22;2225;53.568;13.266;2024-02-26T04:59:54;4.30;95.50
4425;DHT22;2225;53.568;13.266;2024-02-26T05:02:21;4.30;95.50
4425;DHT22;2225;53.568;13.266;2024-02-26T05:04:48;4.20;95.60
4425;DHT22;2225;53.568;13.266;2024-02-26T05:07:15;4.20;95.60
4425;DHT22;2225;53.568;13.266;2024-02-26T05:09:44;4.20;95.50
4425;DHT22;2225;53.568;13.266;2024-02-26T05:12:12;4.20;95.40
4425;DHT22;2225;53.568;13.266;2024-02-26T05:14:39;4.20;95.40
4425;DHT22;2225;53.568;13.266;2024-02-26T05:17:06;4.20;95.30
4425;DHT22;2225;53.568;13.266;2024-02-26T05:19:33;4.20;95.50
4425;DHT22;2225;53.568;13.266;2024-02-26T05:22:00;4.20;95.50
4425;DHT22;2225;53.568;13.266;2024-02-26T05:24:27;4.20;95.50
4425;DHT22;2225;53.568;13.266;2024-02-26T05:26:54;4.20;95.60
4425;DHT22;2225;53.568;13.266;2024-02-26T05:29:22;4.20;95.60
4425;DHT22;2225;53.568;13.266;2024-02-26T05:31:49;4.20;95.60
4425;DHT22;2225;53.568;13.266;2024-02-26T05:34:16;4.10;95.50
4425;DHT22;2225;53.568;13.266;2024-02-26T05:36:43;4.10;95.60
4425;DHT22;2225;53.568;13.266;2024-02-26T05:39:10;4.10;95.70
4425;DHT22;2225;53.568;13.266;2024-02-26T05:41:44;4.10;95.70
4425;DHT22;2225;53.568;13.266;2024-02-26T05:44:11;4.10;95.70
4425;DHT22;2225;53.568;13.266;2024-02-26T05:46:38;4.10;95.80
4425;DHT22;2225;53.568;13.266;2024-02-26T05:49:05;4.10;95.70
4425;DHT22;2225;53.568;13.266;2024-02-26T05:51:34;4.10;95.80
4425;DHT22;2225;53.568;13.266;2024-02-26T05:54:00;4.10;95.80
4425;DHT22;2225;53.568;13.266;2024-02-26T05:56:27;4.10;95.80
4425;DHT22;2225;53.568;13.266;2024-02-26T05:58:54;4.10;95.70
4425;DHT22;2225;53.568;13.266;2024-02-26T06:01:21;4.10;95.80
4425;DHT22;2225;53.568;13.266;2024-02-26T06:03:48;4.10;95.80
4425;DHT22;2225;53.568;13.266;2024-02-26T06:06:16;4.10;95.80
4425;DHT22;2225;53.568;13.266;2024-02-26T06:08:44;4.10;95.90
4425;DHT22;2225;53.568;13.266;2024-02-26T06:11:10;4.10;95.80
4425;DHT22;2225;53.568;13.266;2024-02-26T06:13:37;4.10;95.80
4425;DHT22;2225;53.568;13.266;2024-02-26T06:16:05;4.10;95.80
4425;DHT22;2225;53.568;13.266;2024-02-26T06:18:32;4.10;95.80
4425;DHT22;2225;53.568;13.266;2024-02-26T06:20:59;4.10;96.00
4425;DHT22;2225;53.568;13.266;2024-02-26T06:23:26;4.10;96.10
4425;DHT22;2225;53.568;13.266;2024-02-26T06:25:53;4.10;96.10
4425;DHT22;2225;53.568;13.266;2024-02-26T06:28:20;4.20;96.20
4425;DHT22;2225;53.568;13.266;2024-02-26T06:30:47;4.20;96.20
4425;DHT22;2225;53.568;13.266;2024-02-26T06:33:14;4.20;96.20
4425;DHT22;2225;53.568;13.266;2024-02-26T06:35:41;4.30;96.30
4425;DHT22;2225;53.568;13.266;2024-02-26T06:38:08;4.30;96.40
4425;DHT22;2225;53.568;13.266;2024-02-26T06:40:36;4.30;96.50
4425;DHT22;2225;53.568;13.266;2024-02-26T06:43:03;4.40;96.60
4425;DHT22;2225;53.568;13.266;2024-02-26T06:45:30;4.40;96.50
4425;DHT22;2225;53.568;13.266;2024-02-26T06:47:57;4.40;96.60
4425;DHT22;2225;53.568;13.266;2024-02-26T06:50:24;4.50;96.70
4425;DHT22;2225;53.568;13.266;2024-02-26T06:52:51;4.60;96.80
4425;DHT22;2225;53.568;13.266;2024-02-26T06:55:18;4.60;96.80
4425;DHT22;2225;53.568;13.266;2024-02-26T06:57:45;4.70;96.90
4425;DHT22;2225;53.568;13.266;2024-02-26T07:00:13;4.70;96.80
4425;DHT22;2225;53.568;13.266;2024-02-26T07:02:43;4.80;96.70
4425;DHT22;2225;53.568;13.266;2024-02-26T07:05:10;4.80;96.70
4425;DHT22;2225;53.568;13.266;2024-02-26T07:07:37;4.90;96.80
4425;DHT22;2225;53.568;13.266;2024-02-26T07:10:05;5.00;96.80
4425;DHT22;2225;53.568;13.266;2024-02-26T07:12:33;5.10;96.70
4425;DHT22;2225;53.568;13.266;2024-02-26T07:15:00;5.10;96.70
4425;DHT22;2225;53.568;13.266;2024-02-26T07:17:29;5.20;96.50
4425;DHT22;2225;53.568;13.266;2024-02-26T07:19:56;5.30;96.40
4425;DHT22;2225;53.568;13.266;2024-02-26T07:22:23;5.30;96.40
4425;DHT22;2225;53.568;13.266;2024-02-26T07:24:51;5.40;96.40
4425;DHT22;2225;53.568;13.266;2024-02-26T07:27:21;5.50;96.40
4425;DHT22;2225;53.568;13.266;2024-02-26T07:29:48;5.50;96.30
4425;DHT22;2225;53.568;13.266;2024-02-26T07:32:15;5.50;96.40
4425;DHT22;2225;53.568;13.266;2024-02-26T07:34:42;5.60;96.40
4425;DHT22;2225;53.568;13.266;2024-02-26T07:37:11;5.70;96.40
4425;DHT22;2225;53.568;13.266;2024-02-26T07:39:38;5.80;96.50
4425;DHT22;2225;53.568;13.266;2024-02-26T07:42:05;5.80;96.50
4425;DHT22;2225;53.568;13.266;2024-02-26T07:44:33;5.90;96.50
4425;DHT22;2225;53.568;13.266;2024-02-26T07:47:00;6.00;96.50
4425;DHT22;2225;53.568;13.266;2024-02-26T07:49:27;6.10;96.60
4425;DHT22;2225;53.568;13.266;2024-02-26T07:51:54;6.20;96.60
4425;DHT22;2225;53.568;13.266;2024-02-26T07:54:24;6.30;96.50
4425;DHT22;2225;53.568;13.266;2024-02-26T07:56:51;6.40;96.50
4425;DHT22;2225;53.568;13.266;2024-02-26T07:59:18;6.50;96.50
4425;DHT22;2225;53.568;13.266;2024-02-26T08:01:50;6.50;96.40
4425;DHT22;2225;53.568;13.266;2024-02-26T08:04:24;6.60;96.40
4425;DHT22;2225;53.568;13.266;2024-02-26T08:06:52;6.70;96.50
4425;DHT22;2225;53.568;13.266;2024-02-26T08:09:19;6.80;96.50
4425;DHT22;2225;53.568;13.266;2024-02-26T08:11:46;6.80;96.50
4425;DHT22;2225;53.568;13.266;2024-02-26T08:14:13;6.90;96.50
4425;DHT22;2225;53.568;13.266;2024-02-26T08:16:40;7.00;96.60
4425;DHT22;2225;53.568;13.266;2024-02-26T08:19:07;7.10;96.60
4425;DHT22;2225;53.568;13.266;2024-02-26T08:21:37;7.20;96.60
4425;DHT22;2225;53.568;13.266;2024-02-26T08:24:04;7.30;96.60
4425;DHT22;2225;53.568;13.266;2024-02-26T08:26:31;7.40;96.60
4425;DHT22;2225;53.568;13.266;2024-02-26T08:28:58;7.50;96.60
4425;DHT22;2225;53.568;13.266;2024-02-26T08:31:25;7.60;96.50
4425;DHT22;2225;53.568;13.266;2024-02-26T08:33:53;7.70;96.60
4425;DHT22;2225;53.568;13.266;2024-02-26T08:36:21;7.90;96.60
4425;DHT22;2225;53.568;13.266;2024-02-26T08:38:48;8.00;96.50
4425;DHT22;2225;53.568;13.266;2024-02-26T08:41:15;8.10;96.50
4425;DHT22;2225;53.568;13.266;2024-02-26T08:43:42;8.20;96.40
4425;DHT22;2225;53.568;13.266;2024-02-26T08:46:09;8.30;96.40
4425;DHT22;2225;53.568;13.266;2024-02-26T08:48:37;8.40;96.40
4425;DHT22;2225;53.568;13.266;2024-02-26T08:51:08;8.50;96.20
4425;DHT22;2225;53.568;13.266;2024-02-26T08:53:36;8.60;96.20
4425;DHT22;2225;53.568;13.266;2024-02-26T08:56:09;8.70;96.10
4425;DHT22;2225;53.568;13.266;2024-02-26T08:58:43;8.80;96.10
4425;DHT22;2225;53.568;13.266;2024-02-26T09:01:10;8.80;96.00
4425;DHT22;2225;53.568;13.266;2024-02-26T09:03:37;8.90;95.90
4425;DHT22;2225;53.568;13.266;2024-02-26T09:06:05;9.00;95.90
4425;DHT22;2225;53.568;13.266;2024-02-26T09:08:33;9.10;95.90
4425;DHT22;2225;53.568;13.266;2024-02-26T09:11:02;9.10;95.90
4425;DHT22;2225;53.568;13.266;2024-02-26T09:13:30;9.20;95.90
4425;DHT22;2225;53.568;13.266;2024-02-26T09:15:57;9.30;96.30
4425;DHT22;2225;53.568;13.266;2024-02-26T09:18:25;9.30;96.00
4425;DHT22;2225;53.568;13.266;2024-02-26T09:20:52;9.40;96.00
4425;DHT22;2225;53.568;13.266;2024-02-26T09:23:19;9.50;96.00
4425;DHT22;2225;53.568;13.266;2024-02-26T09:25:46;9.60;96.00
4425;DHT22;2225;53.568;13.266;2024-02-26T09:28:13;9.70;96.00
4425;DHT22;2225;53.568;13.266;2024-02-26T09:30:42;9.70;95.90
4425;DHT22;2225;53.568;13.266;2024-02-26T09:33:13;9.80;95.90
4425;DHT22;2225;53.568;13.266;2024-02-26T09:35:41;9.90;95.80
4425;DHT22;2225;53.568;13.266;2024-02-26T09:38:08;10.00;95.80
4425;DHT22;2225;53.568;13.266;2024-02-26T09:40:36;10.10;95.70
4425;DHT22;2225;53.568;13.266;2024-02-26T09:43:05;10.20;96.00
4425;DHT22;2225;53.568;13.266;2024-02-26T09:45:33;10.30;95.70
4425;DHT22;2225;53.568;13.266;2024-02-26T09:48:01;10.40;95.70
4425;DHT22;2225;53.568;13.266;2024-02-26T09:50:30;10.40;95.80
4425;DHT22;2225;53.568;13.266;2024-02-26T09:52:57;10.60;95.80
4425;DHT22;2225;53.568;13.266;2024-02-26T09:55:26;10.70;95.70
4425;DHT22;2225;53.568;13.266;2024-02-26T09:57:54;10.70;95.70
4425;DHT22;2225;53.568;13.266;2024-02-26T10:00:22;10.90;95.70
4425;DHT22;2225;53.568;13.266;2024-02-26T10:02:51;11.00;95.70
4425;DHT22;2225;53.568;13.266;2024-02-26T10:05:18;11.10;95.70
4425;DHT22;2225;53.568;13.266;2024-02-26T10:07:46;11.20;95.60
4425;DHT22;2225;53.568;13.266;2024-02-26T10:10:17;11.20;95.60
4425;DHT22;2225;53.568;13.266;2024-02-26T10:12:44;11.40;95.60
4425;DHT22;2225;53.568;13.266;2024-02-26T10:15:11;11.40;95.50
4425;DHT22;2225;53.568;13.266;2024-02-26T10:17:39;11.60;95.60
4425;DHT22;2225;53.568;13.266;2024-02-26T10:22:44;11.70;94.80
4425;DHT22;2225;53.568;13.266;2024-02-26T10:25:12;11.80;94.90
4425;DHT22;2225;53.568;13.266;2024-02-26T10:27:41;11.90;94.50
4425;DHT22;2225;53.568;13.266;2024-02-26T10:30:18;12.10;94.00
4425;DHT22;2225;53.568;13.266;2024-02-26T10:32:48;12.20;93.70
4425;DHT22;2225;53.568;13.266;2024-02-26T10:35:16;12.20;93.50
4425;DHT22;2225;53.568;13.266;2024-02-26T10:37:48;12.30;93.30
4425;DHT22;2225;53.568;13.266;2024-02-26T10:40:16;12.40;93.10
4425;DHT22;2225;53.568;13.266;2024-02-26T10:42:43;12.50;93.00
4425;DHT22;2225;53.568;13.266;2024-02-26T10:45:13;12.60;92.50
4425;DHT22;2225;53.568;13.266;2024-02-26T10:47:41;12.60;92.60
4425;DHT22;2225;53.568;13.266;2024-02-26T10:50:09;12.70;92.40
4425;DHT22;2225;53.568;13.266;2024-02-26T10:52:37;12.80;92.10
4425;DHT22;2225;53.568;13.266;2024-02-26T10:55:05;12.80;91.90
4425;DHT22;2225;53.568;13.266;2024-02-26T10:57:39;12.90;91.80
4425;DHT22;2225;53.568;13.266;2024-02-26T11:00:08;12.90;91.80
4425;DHT22;2225;53.568;13.266;2024-02-26T11:02:40;13.00;91.80
4425;DHT22;2225;53.568;13.266;2024-02-26T11:05:08;13.00;91.60
4425;DHT22;2225;53.568;13.266;2024-02-26T11:07:35;13.10;92.00
4425;DHT22;2225;53.568;13.266;2024-02-26T11:10:04;13.20;91.40
4425;DHT22;2225;53.568;13.266;2024-02-26T11:12:33;13.20;91.10
4425;DHT22;2225;53.568;13.266;2024-02-26T11:15:04;13.30;91.10
4425;DHT22;2225;53.568;13.266;2024-02-26T11:17:32;13.40;91.10
4425;DHT22;2225;53.568;13.266;2024-02-26T11:20:01;13.40;91.20
4425;DHT22;2225;53.568;13.266;2024-02-26T11:22:32;13.50;90.80
4425;DHT22;2225;53.568;13.266;2024-02-26T11:25:00;13.60;90.60
4425;DHT22;2225;53.568;13.266;2024-02-26T11:27:31;13.60;90.50
4425;DHT22;2225;53.568;13.266;2024-02-26T11:30:02;13.70;90.40
4425;DHT22;2225;53.568;13.266;2024-02-26T11:32:32;13.70;90.20
4425;DHT22;2225;53.568;13.266;2024-02-26T11:35:01;13.70;90.00
4425;DHT22;2225;53.568;13.266;2024-02-26T11:37:31;13.80;89.40
4425;DHT22;2225;53.568;13.266;2024-02-26T11:40:04;13.80;89.70
4425;DHT22;2225;53.568;13.266;2024-02-26T11:42:31;13.80;89.70
4425;DHT22;2225;53.568;13.266;2024-02-26T11:44:59;13.90;88.90
4425;DHT22;2225;53.568;13.266;2024-02-26T11:47:27;13.90;88.00
4425;DHT22;2225;53.568;13.266;2024-02-26T11:49:55;14.00;88.40
4425;DHT22;2225;53.568;13.266;2024-02-26T11:52:22;14.00;88.10
4425;DHT22;2225;53.568;13.266;2024-02-26T11:54:50;14.00;87.90
4425;DHT22;2225;53.568;13.266;2024-02-26T11:57:25;14.00;87.50
4425;DHT22;2225;53.568;13.266;2024-02-26T12:02:42;14.10;87.80
4425;DHT22;2225;53.568;13.266;2024-02-26T12:05:21;14.10;87.80
4425;DHT22;2225;53.568;13.266;2024-02-26T12:07:55;14.20;88.30
4425;DHT22;2225;53.568;13.266;2024-02-26T12:10:28;14.30;87.40
4425;DHT22;2225;53.568;13.266;2024-02-26T12:13:12;14.30;87.40
4425;DHT22;2225;53.568;13.266;2024-02-26T12:15:58;14.30;86.50
4425;DHT22;2225;53.568;13.266;2024-02-26T12:18:26;14.40;86.50
4425;DHT22;2225;53.568;13.266;2024-02-26T12:21:00;14.40;85.90
4425;DHT22;2225;53.568;13.266;2024-02-26T12:23:31;14.40;86.20
4425;DHT22;2225;53.568;13.266;2024-02-26T12:26:01;14.40;85.80
4425;DHT22;2225;53.568;13.266;2024-02-26T12:28:33;14.40;85.40
4425;DHT22;2225;53.568;13.266;2024-02-26T12:31:00;14.50;85.70
4425;DHT22;2225;53.568;13.266;2024-02-26T12:33:28;14.40;85.70
4425;DHT22;2225;53.568;13.266;2024-02-26T12:35:56;14.40;85.50
4425;DHT22;2225;53.568;13.266;2024-02-26T12:38:23;14.50;85.90
4425;DHT22;2225;53.568;13.266;2024-02-26T12:40:51;14.50;85.80
4425;DHT22;2225;53.568;13.266;2024-02-26T12:43:18;14.40;84.20
4425;DHT22;2225;53.568;13.266;2024-02-26T12:45:45;14.40;84.90
4425;DHT22;2225;53.568;13.266;2024-02-26T12:48:14;14.40;84.90
4425;DHT22;2225;53.568;13.266;2024-02-26T12:50:45;14.40;85.00
4425;DHT22;2225;53.568;13.266;2024-02-26T12:53:14;14.40;85.10
4425;DHT22;2225;53.568;13.266;2024-02-26T12:55:42;14.40;84.70
4425;DHT22;2225;53.568;13.266;2024-02-26T12:58:10;14.40;84.80
4425;DHT22;2225;53.568;13.266;2024-02-26T13:00:38;14.40;85.20
4425;DHT22;2225;53.568;13.266;2024-02-26T13:03:05;14.40;85.30
4425;DHT22;2225;53.568;13.266;2024-02-26T13:05:32;14.50;84.70
4425;DHT22;2225;53.568;13.266;2024-02-26T13:08:00;14.50;85.00
4425;DHT22;2225;53.568;13.266;2024-02-26T13:10:29;14.50;84.60
4425;DHT22;2225;53.568;13.266;2024-02-26T13:12:57;14.60;84.80
4425;DHT22;2225;53.568;13.266;2024-02-26T13:15:26;14.60;84.50
4425;DHT22;2225;53.568;13.266;2024-02-26T13:17:53;14.60;84.20
4425;DHT22;2225;53.568;13.266;2024-02-26T13:20:30;14.60;83.50
4425;DHT22;2225;53.568;13.266;2024-02-26T13:23:04;14.60;83.80
4425;DHT22;2225;53.568;13.266;2024-02-26T13:25:34;14.60;82.90
4425;DHT22;2225;53.568;13.266;2024-02-26T13:30:58;14.70;82.90
4425;DHT22;2225;53.568;13.266;2024-02-26T13:33:27;14.70;83.10
4425;DHT22;2225;53.568;13.266;2024-02-26T13:35:56;14.70;82.60
4425;DHT22;2225;53.568;13.266;2024-02-26T13:38:24;14.70;82.10
4425;DHT22;2225;53.568;13.266;2024-02-26T13:40:51;14.70;82.10
4425;DHT22;2225;53.568;13.266;2024-02-26T13:43:19;14.60;80.90
4425;DHT22;2225;53.568;13.266;2024-02-26T13:45:46;14.70;81.70
4425;DHT22;2225;53.568;13.266;2024-02-26T13:48:14;14.70;82.10
4425;DHT22;2225;53.568;13.266;2024-02-26T13:50:42;14.70;81.40
4425;DHT22;2225;53.568;13.266;2024-02-26T13:53:10;14.70;80.80
4425;DHT22;2225;53.568;13.266;2024-02-26T13:55:39;14.70;80.50
4425;DHT22;2225;53.568;13.266;2024-02-26T13:58:11;14.70;79.70
4425;DHT22;2225;53.568;13.266;2024-02-26T14:00:40;14.70;80.10
4425;DHT22;2225;53.568;13.266;2024-02-26T14:03:09;14.70;80.60
4425;DHT22;2225;53.568;13.266;2024-02-26T14:05:36;14.70;81.10
4425;DHT22;2225;53.568;13.266;2024-02-26T14:08:03;14.70;81.60
4425;DHT22;2225;53.568;13.266;2024-02-26T14:10:31;14.70;82.00
4425;DHT22;2225;53.568;13.266;2024-02-26T14:12:58;14.60;82.40
4425;DHT22;2225;53.568;13.266;2024-02-26T14:15:27;14.60;82.50
4425;DHT22;2225;53.568;13.266;2024-02-26T14:17:55;14.60;82.60
4425;DHT22;2225;53.568;13.266;2024-02-26T14:20:24;14.70;82.50
4425;DHT22;2225;53.568;13.266;2024-02-26T14:22:52;14.60;82.00
4425;DHT22;2225;53.568;13.266;2024-02-26T14:25:20;14.60;82.10
4425;DHT22;2225;53.568;13.266;2024-02-26T14:27:48;14.60;81.60
4425;DHT22;2225;53.568;13.266;2024-02-26T14:30:15;14.60;81.00
4425;DHT22;2225;53.568;13.266;2024-02-26T14:32:42;14.60;81.20
4425;DHT22;2225;53.568;13.266;2024-02-26T14:35:11;14.60;81.30
4425;DHT22;2225;53.568;13.266;2024-02-26T14:37:43;14.60;81.10
4425;DHT22;2225;53.568;13.266;2024-02-26T14:40:15;14.60;81.40
4425;DHT22;2225;53.568;13.266;2024-02-26T14:42:43;14.60;82.10
4425;DHT22;2225;53.568;13.266;2024-02-26T14:45:10;14.60;82.70
4425;DHT22;2225;53.568;13.266;2024-02-26T14:47:38;14.60;82.90
4425;DHT22;2225;53.568;13.266;2024-02-26T14:50:06;14.50;83.10
4425;DHT22;2225;53.568;13.266;2024-02-26T14:52:33;14.50;83.50
4425;DHT22;2225;53.568;13.266;2024-02-26T14:55:00;14.50;83.50
4425;DHT22;2225;53.568;13.266;2024-02-26T14:57:27;14.50;83.50
4425;DHT22;2225;53.568;13.266;2024-02-26T14:59:54;14.50;83.50
4425;DHT22;2225;53.568;13.266;2024-02-26T15:02:21;14.40;83.20
4425;DHT22;2225;53.568;13.266;2024-02-26T15:04:48;14.40;83.00
4425;DHT22;2225;53.568;13.266;2024-02-26T15:07:15;14.40;83.10
4425;DHT22;2225;53.568;13.266;2024-02-26T15:09:43;14.40;83.10
4425;DHT22;2225;53.568;13.266;2024-02-26T15:12:10;14.30;82.90
4425;DHT22;2225;53.568;13.266;2024-02-26T15:14:38;14.30;82.80
4425;DHT22;2225;53.568;13.266;2024-02-26T15:17:05;14.20;82.60
4425;DHT22;2225;53.568;13.266;2024-02-26T15:19:37;14.20;83.00
4425;DHT22;2225;53.568;13.266;2024-02-26T15:22:04;14.20;82.50
4425;DHT22;2225;53.568;13.266;2024-02-26T15:24:31;14.20;82.40
4425;DHT22;2225;53.568;13.266;2024-02-26T15:26:58;14.10;82.20
4425;DHT22;2225;53.568;13.266;2024-02-26T15:29:25;14.10;82.50
4425;DHT22;2225;53.568;13.266;2024-02-26T15:31:52;14.00;82.30
4425;DHT22;2225;53.568;13.266;2024-02-26T15:34:19;14.00;82.60
4425;DHT22;2225;53.568;13.266;2024-02-26T15:36:46;14.00;83.00
4425;DHT22;2225;53.568;13.266;2024-02-26T15:39:13;14.00;82.90
4425;DHT22;2225;53.568;13.266;2024-02-26T15:41:40;14.00;82.80
4425;DHT22;2225;53.568;13.266;2024-02-26T15:44:07;13.90;82.80
4425;DHT22;2225;53.568;13.266;2024-02-26T15:46:39;13.90;82.60
4425;DHT22;2225;53.568;13.266;2024-02-26T15:49:07;13.90;83.50
4425;DHT22;2225;53.568;13.266;2024-02-26T15:51:38;13.80;82.10
4425;DHT22;2225;53.568;13.266;2024-02-26T15:54:05;13.90;82.60
4425;DHT22;2225;53.568;13.266;2024-02-26T15:56:32;13.90;82.80
4425;DHT22;2225;53.568;13.266;2024-02-26T15:58:59;13.80;82.70
4425;DHT22;2225;53.568;13.266;2024-02-26T16:01:26;13.80;82.80
4425;DHT22;2225;53.568;13.266;2024-02-26T16:03:57;13.80;82.60
4425;DHT22;2225;53.568;13.266;2024-02-26T16:06:36;13.80;82.70
4425;DHT22;2225;53.568;13.266;2024-02-26T16:09:06;13.70;82.50